sensor_id;sensor_type;location;lat;lon;timestamp;temperature;humidity
75927;DHT22;64605;48.296;16.416;2022-12-29T00:01:22;2.70;74.90
75927;DHT22;64605;48.296;16.416;2022-12-29T00:03:48;2.70;74.90
75927;DHT22;64605;48.296;16.416;2022-12-29T00:06:13;2.60;74.70
75927;DHT22;64605;48.296;16.416;2022-12-29T00:08:39;2.60;74.80
75927;DHT22;64605;48.296;16.416;2022-12-29T00:11:14;2.60;75.00
75927;DHT22;64605;48.296;16.416;2022-12-29T00:13:40;2.60;75.10
75927;DHT22;64605;48.296;16.416;2022-12-29T00:16:24;2.50;75.00
75927;DHT22;64605;48.296;16.416;2022-12-29T00:18:50;2.50;75.20
75927;DHT22;64605;48.296;16.416;2022-12-29T00:21:18;2.50;75.30
75927;DHT22;64605;48.296;16.416;2022-12-29T00:24:03;2.50;75.50
75927;DHT22;64605;48.296;16.416;2022-12-29T00:26:58;2.50;75.70
75927;DHT22;64605;48.296;16.416;2022-12-29T00:29:42;2.50;75.50
75927;DHT22;64605;48.296;16.416;2022-12-29T00:32:26;2.40;75.40
75927;DHT22;64605;48.296;16.416;2022-12-29T00:35:12;2.40;75.40
75927;DHT22;64605;48.296;16.416;2022-12-29T00:37:44;2.40;75.50
75927;DHT22;64605;48.296;16.416;2022-12-29T00:40:29;2.40;75.70
75927;DHT22;64605;48.296;16.416;2022-12-29T00:43:13;2.30;75.80
75927;DHT22;64605;48.296;16.416;2022-12-29T00:45:57;2.30;75.90
75927;DHT22;64605;48.296;16.416;2022-12-29T00:48:24;2.30;76.30
75927;DHT22;64605;48.296;16.416;2022-12-29T00:51:08;2.30;76.20
75927;DHT22;64605;48.296;16.416;2022-12-29T00:53:34;2.20;76.30
75927;DHT22;64605;48.296;16.416;2022-12-29T00:56:00;2.20;76.30
75927;DHT22;64605;48.296;16.416;2022-12-29T00:58:29;2.20;76.30
75927;DHT22;64605;48.296;16.416;2022-12-29T01:01:07;2.20;76.30
75927;DHT22;64605;48.296;16.416;2022-12-29T01:03:33;2.20;76.10
75927;DHT22;64605;48.296;16.416;2022-12-29T01:06:04;2.10;76.30
75927;DHT22;64605;48.296;16.416;2022-12-29T01:08:30;2.10;76.30
75927;DHT22;64605;48.296;16.416;2022-12-29T01:11:00;2.20;76.30
75927;DHT22;64605;48.296;16.416;2022-12-29T01:13:26;2.10;76.20
75927;DHT22;64605;48.296;16.416;2022-12-29T01:15:53;2.00;75.90
75927;DHT22;64605;48.296;16.416;2022-12-29T01:18:20;2.00;76.20
75927;DHT22;64605;48.296;16.416;2022-12-29T01:20:45;2.00;76.20
75927;DHT22;64605;48.296;16.416;2022-12-29T01:23:11;2.00;76.30
75927;DHT22;64605;48.296;16.416;2022-12-29T01:25:37;2.00;76.20
75927;DHT22;64605;48.296;16.416;2022-12-29T01:28:03;2.00;76.10
75927;DHT22;64605;48.296;16.416;2022-12-29T01:30:28;2.00;76.10
75927;DHT22;64605;48.296;16.416;2022-12-29T01:32:54;2.00;76.20
75927;DHT22;64605;48.296;16.416;2022-12-29T01:35:19;2.00;76.20
75927;DHT22;64605;48.296;16.416;2022-12-29T01:37:45;2.00;76.00
75927;DHT22;64605;48.296;16.416;2022-12-29T01:40:11;1.90;76.10
75927;DHT22;64605;48.296;16.416;2022-12-29T01:42:37;1.90;76.20
75927;DHT22;64605;48.296;16.416;2022-12-29T01:45:11;1.90;76.20
75927;DHT22;64605;48.296;16.416;2022-12-29T01:47:53;1.90;76.20
75927;DHT22;64605;48.296;16.416;2022-12-29T01:50:32;1.80;76.10
75927;DHT22;64605;48.296;16.416;2022-12-29T01:53:20;1.90;76.20
75927;DHT22;64605;48.296;16.416;2022-12-29T01:55:55;1.80;76.10
75927;DHT22;64605;48.296;16.416;2022-12-29T01:58:24;1.70;76.10
75927;DHT22;64605;48.296;16.416;2022-12-29T02:00:52;1.80;76.40
75927;DHT22;64605;48.296;16.416;2022-12-29T02:03:19;1.80;76.30
75927;DHT22;64605;48.296;16.416;2022-12-29T02:05:58;1.80;76.40
75927;DHT22;64605;48.296;16.416;2022-12-29T02:08:27;1.80;76.10
75927;DHT22;64605;48.296;16.416;2022-12-29T02:10:55;1.80;76.10
75927;DHT22;64605;48.296;16.416;2022-12-29T02:13:20;1.80;76.10
75927;DHT22;64605;48.296;16.416;2022-12-29T02:16:13;1.70;76.10
75927;DHT22;64605;48.296;16.416;2022-12-29T02:32:05;1.70;76.10
75927;DHT22;64605;48.296;16.416;2022-12-29T02:37:26;1.70;76.30
75927;DHT22;64605;48.296;16.416;2022-12-29T02:40:07;1.70;76.40
75927;DHT22;64605;48.296;16.416;2022-12-29T02:50:37;1.70;76.60
75927;DHT22;64605;48.296;16.416;2022-12-29T02:53:11;1.70;76.10
75927;DHT22;64605;48.296;16.416;2022-12-29T02:55:37;1.70;76.50
75927;DHT22;64605;48.296;16.416;2022-12-29T03:00:38;1.70;76.70
75927;DHT22;64605;48.296;16.416;2022-12-29T03:08:34;1.70;76.40
75927;DHT22;64605;48.296;16.416;2022-12-29T03:11:06;1.70;76.50
75927;DHT22;64605;48.296;16.416;2022-12-29T03:13:59;1.60;76.70
75927;DHT22;64605;48.296;16.416;2022-12-29T03:16:49;1.70;76.60
75927;DHT22;64605;48.296;16.416;2022-12-29T03:19:44;1.70;76.50
75927;DHT22;64605;48.296;16.416;2022-12-29T03:22:13;1.70;76.60
75927;DHT22;64605;48.296;16.416;2022-12-29T03:24:56;1.70;76.50
75927;DHT22;64605;48.296;16.416;2022-12-29T03:27:29;1.60;76.00
75927;DHT22;64605;48.296;16.416;2022-12-29T03:30:00;1.70;76.60
75927;DHT22;64605;48.296;16.416;2022-12-29T03:32:35;1.70;76.70
75927;DHT22;64605;48.296;16.416;2022-12-29T03:35:03;1.70;76.80
75927;DHT22;64605;48.296;16.416;2022-12-29T03:37:35;1.70;76.10
75927;DHT22;64605;48.296;16.416;2022-12-29T03:40:03;1.70;76.80
75927;DHT22;64605;48.296;16.416;2022-12-29T03:42:31;1.80;76.80
75927;DHT22;64605;48.296;16.416;2022-12-29T03:44:57;1.80;76.50
75927;DHT22;64605;48.296;16.416;2022-12-29T03:47:24;1.80;76.20
75927;DHT22;64605;48.296;16.416;2022-12-29T03:49:50;1.80;76.30
75927;DHT22;64605;48.296;16.416;2022-12-29T03:52:17;1.90;76.30
75927;DHT22;64605;48.296;16.416;2022-12-29T03:54:42;1.80;76.10
75927;DHT22;64605;48.296;16.416;2022-12-29T03:57:09;1.80;76.20
75927;DHT22;64605;48.296;16.416;2022-12-29T03:59:35;1.80;76.10
75927;DHT22;64605;48.296;16.416;2022-12-29T04:02:01;1.90;76.20
75927;DHT22;64605;48.296;16.416;2022-12-29T04:04:26;1.90;76.20
75927;DHT22;64605;48.296;16.416;2022-12-29T04:06:52;1.90;76.20
75927;DHT22;64605;48.296;16.416;2022-12-29T04:09:17;1.80;76.10
75927;DHT22;64605;48.296;16.416;2022-12-29T04:11:43;1.80;76.10
75927;DHT22;64605;48.296;16.416;2022-12-29T04:14:09;1.90;76.20
75927;DHT22;64605;48.296;16.416;2022-12-29T04:16:34;1.90;77.20
75927;DHT22;64605;48.296;16.416;2022-12-29T04:19:05;1.90;76.20
75927;DHT22;64605;48.296;16.416;2022-12-29T04:21:30;1.80;76.10
75927;DHT22;64605;48.296;16.416;2022-12-29T04:23:56;1.80;76.10
75927;DHT22;64605;48.296;16.416;2022-12-29T04:26:22;1.80;76.70
75927;DHT22;64605;48.296;16.416;2022-12-29T04:28:47;1.80;76.60
75927;DHT22;64605;48.296;16.416;2022-12-29T04:31:13;1.80;76.60
75927;DHT22;64605;48.296;16.416;2022-12-29T04:33:39;1.80;76.70
75927;DHT22;64605;48.296;16.416;2022-12-29T04:36:04;1.80;76.40
75927;DHT22;64605;48.296;16.416;2022-12-29T04:38:30;1.80;76.10
75927;DHT22;64605;48.296;16.416;2022-12-29T04:40:59;1.80;76.10
75927;DHT22;64605;48.296;16.416;2022-12-29T04:43:25;1.90;76.20
75927;DHT22;64605;48.296;16.416;2022-12-29T04:45:51;1.80;76.10
75927;DHT22;64605;48.296;16.416;2022-12-29T04:48:17;1.90;76.20
75927;DHT22;64605;48.296;16.416;2022-12-29T04:50:43;1.90;76.20
75927;DHT22;64605;48.296;16.416;2022-12-29T04:53:09;1.90;76.20
75927;DHT22;64605;48.296;16.416;2022-12-29T04:55:35;1.90;76.20
75927;DHT22;64605;48.296;16.416;2022-12-29T04:58:00;1.90;76.20
75927;DHT22;64605;48.296;16.416;2022-12-29T05:00:26;2.00;76.30
75927;DHT22;64605;48.296;16.416;2022-12-29T05:02:52;2.00;76.30
75927;DHT22;64605;48.296;16.416;2022-12-29T05:05:18;2.00;76.30
75927;DHT22;64605;48.296;16.416;2022-12-29T05:07:43;2.10;76.30
75927;DHT22;64605;48.296;16.416;2022-12-29T05:10:10;2.10;76.60
75927;DHT22;64605;48.296;16.416;2022-12-29T05:12:37;2.20;76.70
75927;DHT22;64605;48.296;16.416;2022-12-29T05:15:04;2.30;76.80
75927;DHT22;64605;48.296;16.416;2022-12-29T05:17:30;2.30;76.70
75927;DHT22;64605;48.296;16.416;2022-12-29T05:19:56;2.40;76.70
75927;DHT22;64605;48.296;16.416;2022-12-29T05:22:21;2.50;76.50
75927;DHT22;64605;48.296;16.416;2022-12-29T05:24:47;2.60;76.60
75927;DHT22;64605;48.296;16.416;2022-12-29T05:27:13;2.70;76.60
75927;DHT22;64605;48.296;16.416;2022-12-29T05:29:39;2.80;76.60
75927;DHT22;64605;48.296;16.416;2022-12-29T05:32:05;2.80;76.60
75927;DHT22;64605;48.296;16.416;2022-12-29T05:34:30;2.90;76.60
75927;DHT22;64605;48.296;16.416;2022-12-29T05:36:56;3.00;76.30
75927;DHT22;64605;48.296;16.416;2022-12-29T05:39:22;3.10;76.30
75927;DHT22;64605;48.296;16.416;2022-12-29T05:41:47;3.10;76.40
75927;DHT22;64605;48.296;16.416;2022-12-29T05:44:13;3.20;76.70
75927;DHT22;64605;48.296;16.416;2022-12-29T05:46:38;3.30;76.50
75927;DHT22;64605;48.296;16.416;2022-12-29T05:49:05;3.40;76.40
75927;DHT22;64605;48.296;16.416;2022-12-29T05:51:30;3.50;76.30
75927;DHT22;64605;48.296;16.416;2022-12-29T05:53:56;3.60;76.20
75927;DHT22;64605;48.296;16.416;2022-12-29T05:56:22;3.60;75.90
75927;DHT22;64605;48.296;16.416;2022-12-29T05:58:48;3.60;75.70
75927;DHT22;64605;48.296;16.416;2022-12-29T06:01:13;3.70;75.70
75927;DHT22;64605;48.296;16.416;2022-12-29T06:03:39;3.80;75.60
75927;DHT22;64605;48.296;16.416;2022-12-29T06:06:05;3.80;75.50
75927;DHT22;64605;48.296;16.416;2022-12-29T06:08:30;3.70;75.40
75927;DHT22;64605;48.296;16.416;2022-12-29T06:10:56;3.70;75.80
75927;DHT22;64605;48.296;16.416;2022-12-29T06:13:21;3.60;75.90
75927;DHT22;64605;48.296;16.416;2022-12-29T06:15:51;3.60;75.90
75927;DHT22;64605;48.296;16.416;2022-12-29T06:18:17;3.60;76.10
75927;DHT22;64605;48.296;16.416;2022-12-29T06:20:42;3.60;76.50
75927;DHT22;64605;48.296;16.416;2022-12-29T06:23:08;3.70;76.40
75927;DHT22;64605;48.296;16.416;2022-12-29T06:25:34;3.70;76.40
75927;DHT22;64605;48.296;16.416;2022-12-29T06:28:01;3.70;76.70
75927;DHT22;64605;48.296;16.416;2022-12-29T06:30:27;3.60;77.90
75927;DHT22;64605;48.296;16.416;2022-12-29T06:32:53;3.60;77.10
75927;DHT22;64605;48.296;16.416;2022-12-29T06:35:19;3.70;76.80
75927;DHT22;64605;48.296;16.416;2022-12-29T06:37:45;3.70;77.00
75927;DHT22;64605;48.296;16.416;2022-12-29T06:40:11;3.70;76.90
75927;DHT22;64605;48.296;16.416;2022-12-29T06:42:37;3.80;76.90
75927;DHT22;64605;48.296;16.416;2022-12-29T06:45:03;3.90;76.60
75927;DHT22;64605;48.296;16.416;2022-12-29T06:47:28;3.90;76.50
75927;DHT22;64605;48.296;16.416;2022-12-29T06:49:54;3.90;76.50
75927;DHT22;64605;48.296;16.416;2022-12-29T06:52:20;4.00;76.60
75927;DHT22;64605;48.296;16.416;2022-12-29T06:54:46;4.00;76.40
75927;DHT22;64605;48.296;16.416;2022-12-29T06:57:11;4.00;76.40
75927;DHT22;64605;48.296;16.416;2022-12-29T06:59:37;4.00;76.60
75927;DHT22;64605;48.296;16.416;2022-12-29T07:02:03;4.10;76.60
75927;DHT22;64605;48.296;16.416;2022-12-29T07:04:28;4.10;77.80
75927;DHT22;64605;48.296;16.416;2022-12-29T07:06:55;4.10;76.60
75927;DHT22;64605;48.296;16.416;2022-12-29T07:09:20;4.10;76.60
75927;DHT22;64605;48.296;16.416;2022-12-29T07:11:46;4.20;76.60
75927;DHT22;64605;48.296;16.416;2022-12-29T07:14:12;4.30;77.00
75927;DHT22;64605;48.296;16.416;2022-12-29T07:16:38;4.30;76.60
75927;DHT22;64605;48.296;16.416;2022-12-29T07:19:04;4.30;76.30
75927;DHT22;64605;48.296;16.416;2022-12-29T07:21:30;4.30;76.50
75927;DHT22;64605;48.296;16.416;2022-12-29T07:23:55;4.30;76.40
75927;DHT22;64605;48.296;16.416;2022-12-29T07:26:21;4.30;76.70
75927;DHT22;64605;48.296;16.416;2022-12-29T07:28:47;4.30;76.80
75927;DHT22;64605;48.296;16.416;2022-12-29T07:31:18;4.30;76.70
75927;DHT22;64605;48.296;16.416;2022-12-29T07:33:45;4.40;76.80
75927;DHT22;64605;48.296;16.416;2022-12-29T07:36:12;4.40;76.60
75927;DHT22;64605;48.296;16.416;2022-12-29T07:38:38;4.50;76.20
75927;DHT22;64605;48.296;16.416;2022-12-29T07:41:04;4.50;76.20
75927;DHT22;64605;48.296;16.416;2022-12-29T07:43:29;4.60;77.00
75927;DHT22;64605;48.296;16.416;2022-12-29T07:45:55;4.60;76.80
75927;DHT22;64605;48.296;16.416;2022-12-29T07:48:21;4.60;75.80
75927;DHT22;64605;48.296;16.416;2022-12-29T07:50:47;4.70;75.70
75927;DHT22;64605;48.296;16.416;2022-12-29T07:53:13;4.70;75.60
75927;DHT22;64605;48.296;16.416;2022-12-29T07:55:38;4.80;75.70
75927;DHT22;64605;48.296;16.416;2022-12-29T07:58:04;4.70;75.70
75927;DHT22;64605;48.296;16.416;2022-12-29T08:00:30;4.70;75.90
75927;DHT22;64605;48.296;16.416;2022-12-29T08:02:55;4.70;76.00
75927;DHT22;64605;48.296;16.416;2022-12-29T08:05:21;4.80;75.90
75927;DHT22;64605;48.296;16.416;2022-12-29T08:07:47;4.70;75.90
75927;DHT22;64605;48.296;16.416;2022-12-29T08:10:13;4.70;76.20
75927;DHT22;64605;48.296;16.416;2022-12-29T08:12:40;4.80;76.20
75927;DHT22;64605;48.296;16.416;2022-12-29T08:15:06;4.90;76.00
75927;DHT22;64605;48.296;16.416;2022-12-29T08:17:32;4.90;75.80
75927;DHT22;64605;48.296;16.416;2022-12-29T08:19:58;4.80;76.90
75927;DHT22;64605;48.296;16.416;2022-12-29T08:22:24;4.90;75.90
75927;DHT22;64605;48.296;16.416;2022-12-29T08:24:49;4.80;75.90
75927;DHT22;64605;48.296;16.416;2022-12-29T08:27:15;4.80;76.40
75927;DHT22;64605;48.296;16.416;2022-12-29T08:29:41;4.90;76.30
75927;DHT22;64605;48.296;16.416;2022-12-29T08:32:07;5.00;75.90
75927;DHT22;64605;48.296;16.416;2022-12-29T08:34:32;5.00;75.60
75927;DHT22;64605;48.296;16.416;2022-12-29T08:36:58;5.00;75.60
75927;DHT22;64605;48.296;16.416;2022-12-29T08:39:24;5.00;75.40
75927;DHT22;64605;48.296;16.416;2022-12-29T08:41:50;5.10;75.70
75927;DHT22;64605;48.296;16.416;2022-12-29T08:44:15;5.10;75.40
75927;DHT22;64605;48.296;16.416;2022-12-29T08:46:41;5.20;75.20
75927;DHT22;64605;48.296;16.416;2022-12-29T08:49:07;5.30;75.00
75927;DHT22;64605;48.296;16.416;2022-12-29T08:51:32;5.20;74.70
75927;DHT22;64605;48.296;16.416;2022-12-29T08:53:58;5.10;75.20
75927;DHT22;64605;48.296;16.416;2022-12-29T08:56:24;5.10;75.60
75927;DHT22;64605;48.296;16.416;2022-12-29T08:58:51;4.90;75.90
75927;DHT22;64605;48.296;16.416;2022-12-29T09:01:16;4.80;76.30
75927;DHT22;64605;48.296;16.416;2022-12-29T09:03:42;4.70;76.80
75927;DHT22;64605;48.296;16.416;2022-12-29T09:06:08;4.60;77.20
75927;DHT22;64605;48.296;16.416;2022-12-29T09:08:34;4.60;77.50
75927;DHT22;64605;48.296;16.416;2022-12-29T09:11:12;4.60;77.40
75927;DHT22;64605;48.296;16.416;2022-12-29T09:13:37;4.60;77.70
75927;DHT22;64605;48.296;16.416;2022-12-29T09:16:03;4.70;77.20
75927;DHT22;64605;48.296;16.416;2022-12-29T09:18:30;4.90;77.10
75927;DHT22;64605;48.296;16.416;2022-12-29T09:21:00;4.90;76.60
75927;DHT22;64605;48.296;16.416;2022-12-29T09:23:26;4.90;76.60
75927;DHT22;64605;48.296;16.416;2022-12-29T09:25:52;5.00;76.50
75927;DHT22;64605;48.296;16.416;2022-12-29T09:28:19;5.10;76.40
75927;DHT22;64605;48.296;16.416;2022-12-29T09:30:44;5.10;75.90
75927;DHT22;64605;48.296;16.416;2022-12-29T09:33:10;5.00;76.00
75927;DHT22;64605;48.296;16.416;2022-12-29T09:35:36;5.00;76.30
75927;DHT22;64605;48.296;16.416;2022-12-29T09:38:01;5.00;76.30
75927;DHT22;64605;48.296;16.416;2022-12-29T09:40:30;5.00;76.10
75927;DHT22;64605;48.296;16.416;2022-12-29T09:45:55;5.00;76.50
75927;DHT22;64605;48.296;16.416;2022-12-29T09:48:27;5.00;76.40
75927;DHT22;64605;48.296;16.416;2022-12-29T09:51:02;5.00;76.30
75927;DHT22;64605;48.296;16.416;2022-12-29T09:53:41;5.00;76.60
75927;DHT22;64605;48.296;16.416;2022-12-29T09:56:18;5.10;76.20
75927;DHT22;64605;48.296;16.416;2022-12-29T09:58:50;4.90;76.60
75927;DHT22;64605;48.296;16.416;2022-12-29T10:01:57;5.00;76.60
75927;DHT22;64605;48.296;16.416;2022-12-29T10:04:28;4.90;76.70
75927;DHT22;64605;48.296;16.416;2022-12-29T10:07:02;5.00;76.70
75927;DHT22;64605;48.296;16.416;2022-12-29T10:10:10;5.00;76.60
75927;DHT22;64605;48.296;16.416;2022-12-29T10:21:06;5.30;75.50
75927;DHT22;64605;48.296;16.416;2022-12-29T10:23:40;5.40;75.10
75927;DHT22;64605;48.296;16.416;2022-12-29T10:26:32;5.50;75.30
75927;DHT22;64605;48.296;16.416;2022-12-29T10:29:04;5.50;75.10
75927;DHT22;64605;48.296;16.416;2022-12-29T10:31:40;5.60;75.20
75927;DHT22;64605;48.296;16.416;2022-12-29T10:36:49;5.90;74.20
75927;DHT22;64605;48.296;16.416;2022-12-29T10:39:38;5.90;74.20
75927;DHT22;64605;48.296;16.416;2022-12-29T10:44:44;5.90;73.40
75927;DHT22;64605;48.296;16.416;2022-12-29T10:47:14;5.80;73.20
75927;DHT22;64605;48.296;16.416;2022-12-29T10:49:42;5.60;73.70
75927;DHT22;64605;48.296;16.416;2022-12-29T10:52:11;5.70;73.90
75927;DHT22;64605;48.296;16.416;2022-12-29T10:57:40;5.70;74.30
75927;DHT22;64605;48.296;16.416;2022-12-29T11:00:24;5.90;74.10
75927;DHT22;64605;48.296;16.416;2022-12-29T11:02:58;5.90;73.70
75927;DHT22;64605;48.296;16.416;2022-12-29T11:08:20;6.00;73.50
75927;DHT22;64605;48.296;16.416;2022-12-29T11:10:58;6.00;73.20
75927;DHT22;64605;48.296;16.416;2022-12-29T11:13:27;6.20;73.50
75927;DHT22;64605;48.296;16.416;2022-12-29T11:15:53;6.30;73.00
75927;DHT22;64605;48.296;16.416;2022-12-29T11:20:58;6.40;72.60
75927;DHT22;64605;48.296;16.416;2022-12-29T11:26:24;6.10;72.20
75927;DHT22;64605;48.296;16.416;2022-12-29T11:29:16;6.00;72.70
75927;DHT22;64605;48.296;16.416;2022-12-29T11:31:51;6.00;73.10
75927;DHT22;64605;48.296;16.416;2022-12-29T11:34:37;6.00;73.20
75927;DHT22;64605;48.296;16.416;2022-12-29T11:42:41;6.10;73.00
75927;DHT22;64605;48.296;16.416;2022-12-29T11:45:25;6.10;73.20
75927;DHT22;64605;48.296;16.416;2022-12-29T11:48:05;6.10;73.00
75927;DHT22;64605;48.296;16.416;2022-12-29T11:50:34;6.10;73.00
75927;DHT22;64605;48.296;16.416;2022-12-29T11:53:04;6.20;72.80
75927;DHT22;64605;48.296;16.416;2022-12-29T11:55:31;6.30;72.50
75927;DHT22;64605;48.296;16.416;2022-12-29T11:58:00;6.30;72.50
75927;DHT22;64605;48.296;16.416;2022-12-29T12:00:29;6.40;72.50
75927;DHT22;64605;48.296;16.416;2022-12-29T12:03:17;6.30;72.20
75927;DHT22;64605;48.296;16.416;2022-12-29T12:05:54;6.40;72.70
75927;DHT22;64605;48.296;16.416;2022-12-29T12:08:37;6.50;72.40
75927;DHT22;64605;48.296;16.416;2022-12-29T12:16:24;6.50;71.50
75927;DHT22;64605;48.296;16.416;2022-12-29T12:19:04;6.50;71.90
75927;DHT22;64605;48.296;16.416;2022-12-29T12:21:37;6.30;72.00
75927;DHT22;64605;48.296;16.416;2022-12-29T12:24:51;6.30;72.40
75927;DHT22;64605;48.296;16.416;2022-12-29T12:27:21;6.20;72.50
75927;DHT22;64605;48.296;16.416;2022-12-29T12:32:39;6.10;72.70
75927;DHT22;64605;48.296;16.416;2022-12-29T12:37:59;6.10;73.40
75927;DHT22;64605;48.296;16.416;2022-12-29T12:43:56;6.10;73.10
75927;DHT22;64605;48.296;16.416;2022-12-29T12:46:32;6.10;73.50
75927;DHT22;64605;48.296;16.416;2022-12-29T12:57:46;6.40;72.90
75927;DHT22;64605;48.296;16.416;2022-12-29T13:00:17;6.40;72.80
75927;DHT22;64605;48.296;16.416;2022-12-29T13:06:00;6.50;72.70
75927;DHT22;64605;48.296;16.416;2022-12-29T13:16:40;6.70;72.50
75927;DHT22;64605;48.296;16.416;2022-12-29T13:19:29;6.90;72.50
75927;DHT22;64605;48.296;16.416;2022-12-29T13:27:36;7.30;70.40
75927;DHT22;64605;48.296;16.416;2022-12-29T13:30:15;7.30;70.10
75927;DHT22;64605;48.296;16.416;2022-12-29T13:35:44;7.20;70.50
75927;DHT22;64605;48.296;16.416;2022-12-29T13:38:32;7.10;70.10
75927;DHT22;64605;48.296;16.416;2022-12-29T13:41:04;7.00;70.70
75927;DHT22;64605;48.296;16.416;2022-12-29T13:43:32;6.90;71.20
75927;DHT22;64605;48.296;16.416;2022-12-29T13:46:21;6.90;71.20
75927;DHT22;64605;48.296;16.416;2022-12-29T13:51:21;6.80;71.60
75927;DHT22;64605;48.296;16.416;2022-12-29T14:02:30;6.90;71.80
75927;DHT22;64605;48.296;16.416;2022-12-29T14:05:03;6.80;71.80
75927;DHT22;64605;48.296;16.416;2022-12-29T14:07:30;6.80;71.90
75927;DHT22;64605;48.296;16.416;2022-12-29T14:10:01;6.80;72.00
75927;DHT22;64605;48.296;16.416;2022-12-29T14:12:40;6.80;72.00
75927;DHT22;64605;48.296;16.416;2022-12-29T14:17:37;6.70;72.20
75927;DHT22;64605;48.296;16.416;2022-12-29T14:20:04;6.60;72.20
75927;DHT22;64605;48.296;16.416;2022-12-29T14:22:33;6.60;72.10
75927;DHT22;64605;48.296;16.416;2022-12-29T14:24:59;6.50;72.20
75927;DHT22;64605;48.296;16.416;2022-12-29T14:29:53;6.50;72.30
75927;DHT22;64605;48.296;16.416;2022-12-29T14:37:31;6.20;73.00
75927;DHT22;64605;48.296;16.416;2022-12-29T14:40:22;6.10;73.80
75927;DHT22;64605;48.296;16.416;2022-12-29T14:42:50;6.00;73.80
75927;DHT22;64605;48.296;16.416;2022-12-29T14:47:43;5.90;74.10
75927;DHT22;64605;48.296;16.416;2022-12-29T14:50:25;5.80;74.50
75927;DHT22;64605;48.296;16.416;2022-12-29T14:52:59;5.90;74.50
75927;DHT22;64605;48.296;16.416;2022-12-29T14:56:04;5.80;74.70
75927;DHT22;64605;48.296;16.416;2022-12-29T14:58:32;5.70;75.30
75927;DHT22;64605;48.296;16.416;2022-12-29T15:01:01;5.70;75.10
75927;DHT22;64605;48.296;16.416;2022-12-29T15:03:43;5.70;75.30
75927;DHT22;64605;48.296;16.416;2022-12-29T15:06:11;5.70;75.40
75927;DHT22;64605;48.296;16.416;2022-12-29T15:08:42;5.70;75.40
75927;DHT22;64605;48.296;16.416;2022-12-29T15:11:21;5.70;75.30
75927;DHT22;64605;48.296;16.416;2022-12-29T15:13:47;5.60;75.20
75927;DHT22;64605;48.296;16.416;2022-12-29T15:16:32;5.50;75.70
75927;DHT22;64605;48.296;16.416;2022-12-29T15:18:59;5.50;75.80
75927;DHT22;64605;48.296;16.416;2022-12-29T15:21:33;5.40;75.90
75927;DHT22;64605;48.296;16.416;2022-12-29T15:24:00;5.40;76.20
75927;DHT22;64605;48.296;16.416;2022-12-29T15:26:42;5.30;76.50
75927;DHT22;64605;48.296;16.416;2022-12-29T15:31:53;5.20;76.90
75927;DHT22;64605;48.296;16.416;2022-12-29T15:34:21;5.20;76.90
75927;DHT22;64605;48.296;16.416;2022-12-29T15:36:49;5.20;76.70
75927;DHT22;64605;48.296;16.416;2022-12-29T15:39:29;5.20;76.40
75927;DHT22;64605;48.296;16.416;2022-12-29T15:42:00;5.20;76.70
75927;DHT22;64605;48.296;16.416;2022-12-29T15:44:40;5.10;76.80
75927;DHT22;64605;48.296;16.416;2022-12-29T15:47:22;5.10;76.90
75927;DHT22;64605;48.296;16.416;2022-12-29T15:49:50;5.10;77.00
75927;DHT22;64605;48.296;16.416;2022-12-29T15:52:19;5.10;77.10
75927;DHT22;64605;48.296;16.416;2022-12-29T15:54:47;5.10;77.00
75927;DHT22;64605;48.296;16.416;2022-12-29T15:57:37;5.00;77.20
75927;DHT22;64605;48.296;16.416;2022-12-29T16:00:24;5.10;77.10
75927;DHT22;64605;48.296;16.416;2022-12-29T16:02:51;4.90;77.00
75927;DHT22;64605;48.296;16.416;2022-12-29T16:05:18;4.90;77.00
75927;DHT22;64605;48.296;16.416;2022-12-29T16:07:55;4.90;77.30
75927;DHT22;64605;48.296;16.416;2022-12-29T16:10:38;4.80;77.80
75927;DHT22;64605;48.296;16.416;2022-12-29T16:13:31;4.90;77.70
75927;DHT22;64605;48.296;16.416;2022-12-29T16:18:54;4.80;77.20
75927;DHT22;64605;48.296;16.416;2022-12-29T16:21:28;4.70;77.20
75927;DHT22;64605;48.296;16.416;2022-12-29T16:23:59;4.70;77.30
75927;DHT22;64605;48.296;16.416;2022-12-29T16:26:26;4.70;77.20
75927;DHT22;64605;48.296;16.416;2022-12-29T16:28:56;4.70;76.70
75927;DHT22;64605;48.296;16.416;2022-12-29T16:31:28;4.70;76.70
75927;DHT22;64605;48.296;16.416;2022-12-29T16:33:57;4.60;76.80
75927;DHT22;64605;48.296;16.416;2022-12-29T16:36:38;4.60;76.80
75927;DHT22;64605;48.296;16.416;2022-12-29T16:41:36;4.60;76.80
75927;DHT22;64605;48.296;16.416;2022-12-29T16:44:20;4.50;76.60
75927;DHT22;64605;48.296;16.416;2022-12-29T16:49:53;4.50;78.30
75927;DHT22;64605;48.296;16.416;2022-12-29T16:52:33;4.50;77.60
75927;DHT22;64605;48.296;16.416;2022-12-29T16:55:00;4.50;77.60
75927;DHT22;64605;48.296;16.416;2022-12-29T16:57:31;4.40;78.70
75927;DHT22;64605;48.296;16.416;2022-12-29T17:00:00;4.50;78.50
75927;DHT22;64605;48.296;16.416;2022-12-29T17:02:28;4.50;78.40
75927;DHT22;64605;48.296;16.416;2022-12-29T17:04:55;4.50;79.10
75927;DHT22;64605;48.296;16.416;2022-12-29T17:07:23;4.40;79.10
75927;DHT22;64605;48.296;16.416;2022-12-29T17:09:49;4.50;78.90
75927;DHT22;64605;48.296;16.416;2022-12-29T17:12:18;4.40;78.90
75927;DHT22;64605;48.296;16.416;2022-12-29T17:14:45;4.40;79.70
75927;DHT22;64605;48.296;16.416;2022-12-29T17:19:51;4.40;79.50
75927;DHT22;64605;48.296;16.416;2022-12-29T17:22:21;4.50;79.50
75927;DHT22;64605;48.296;16.416;2022-12-29T17:24:47;4.50;79.30
75927;DHT22;64605;48.296;16.416;2022-12-29T17:29:52;4.60;78.70
75927;DHT22;64605;48.296;16.416;2022-12-29T17:32:19;4.60;78.50
75927;DHT22;64605;48.296;16.416;2022-12-29T17:34:45;4.60;78.30
75927;DHT22;64605;48.296;16.416;2022-12-29T17:39:42;4.70;78.40
75927;DHT22;64605;48.296;16.416;2022-12-29T17:42:10;4.70;78.30
75927;DHT22;64605;48.296;16.416;2022-12-29T17:44:36;4.70;78.00
75927;DHT22;64605;48.296;16.416;2022-12-29T17:47:01;4.70;78.30
75927;DHT22;64605;48.296;16.416;2022-12-29T17:49:27;4.80;77.80
75927;DHT22;64605;48.296;16.416;2022-12-29T17:51:53;4.80;78.30
75927;DHT22;64605;48.296;16.416;2022-12-29T17:54:22;4.80;78.60
75927;DHT22;64605;48.296;16.416;2022-12-29T17:56:48;4.90;78.50
75927;DHT22;64605;48.296;16.416;2022-12-29T17:59:15;5.00;78.10
75927;DHT22;64605;48.296;16.416;2022-12-29T18:01:45;5.10;78.00
75927;DHT22;64605;48.296;16.416;2022-12-29T18:04:20;5.20;79.10
75927;DHT22;64605;48.296;16.416;2022-12-29T18:06:46;5.20;78.00
75927;DHT22;64605;48.296;16.416;2022-12-29T18:09:12;5.30;77.80
75927;DHT22;64605;48.296;16.416;2022-12-29T18:11:40;5.40;77.90
75927;DHT22;64605;48.296;16.416;2022-12-29T18:14:14;5.40;77.70
75927;DHT22;64605;48.296;16.416;2022-12-29T18:16:40;5.50;77.30
75927;DHT22;64605;48.296;16.416;2022-12-29T18:19:06;5.60;77.20
75927;DHT22;64605;48.296;16.416;2022-12-29T18:21:33;5.60;76.70